createdAt,value
2019-04-05T00:04:05.695Z,91
2019-04-05T00:09:33.141Z,91
2019-04-05T00:15:14.151Z,91
2019-04-05T00:20:28.229Z,91
2019-04-05T00:25:55.766Z,91
2019-04-05T00:31:23.247Z,91
2019-04-05T00:36:51.001Z,91
2019-04-05T00:47:46.890Z,91
2019-04-05T00:53:14.291Z,91
2019-04-05T00:58:43.329Z,91
2019-04-05T01:04:11.284Z,92
2019-04-05T01:09:38.776Z,91
2019-04-05T01:15:06.321Z,91
2019-04-05T01:20:33.852Z,91
2019-04-05T01:26:01.993Z,92
2019-04-05T01:31:29.826Z,91
2019-04-05T01:36:58.282Z,91
2019-04-05T01:42:26.802Z,91
2019-04-05T01:47:54.202Z,91
2019-04-05T01:53:21.765Z,92
2019-04-05T01:58:50.893Z,92
2019-04-05T02:04:18.670Z,91
2019-04-05T02:09:47.114Z,92
2019-04-05T02:15:15.626Z,91
2019-04-05T02:20:44.100Z,92
2019-04-05T02:26:11.607Z,92
2019-04-05T02:31:39.063Z,92
2019-04-05T02:37:07.477Z,91
2019-04-05T02:42:36.005Z,91
2019-04-05T02:48:03.460Z,91
2019-04-05T02:53:30.894Z,91
2019-04-05T02:58:59.481Z,92
2019-04-05T03:04:26.937Z,92
2019-04-05T03:09:55.349Z,92
2019-04-05T03:20:51.305Z,92
2019-04-05T03:26:18.735Z,92
2019-04-05T03:31:46.185Z,92
2019-04-05T03:37:14.654Z,92
2019-04-05T03:42:43.069Z,92
2019-04-05T03:48:11.514Z,92
2019-04-05T03:53:39.021Z,92
2019-04-05T04:04:34.893Z,92
2019-04-05T04:10:08.534Z,92
2019-04-05T04:15:29.834Z,92
2019-04-05T04:20:58.347Z,93
2019-04-05T04:26:26.894Z,93
2019-04-05T04:31:54.159Z,93
2019-04-05T04:37:21.669Z,93
2019-04-05T04:42:53.784Z,93
2019-04-05T04:48:17.508Z,93
2019-04-05T04:53:44.965Z,93
2019-04-05T04:59:13.410Z,93
2019-04-05T05:04:41.863Z,93
2019-04-05T05:10:09.358Z,93
2019-04-05T05:15:36.877Z,93
2019-04-05T05:21:05.348Z,93
2019-04-05T05:26:33.865Z,92
2019-04-05T05:32:01.246Z,92
2019-04-05T05:37:28.709Z,93
2019-04-05T05:42:56.198Z,93
2019-04-05T05:48:24.697Z,93
2019-04-05T05:53:57.891Z,93
2019-04-05T05:59:21.972Z,92
2019-04-05T06:04:49.573Z,92
2019-04-05T06:10:17.864Z,91
2019-04-05T06:15:46.428Z,92
2019-04-05T06:21:14.839Z,91
2019-04-05T06:26:42.674Z,91
2019-04-05T06:32:09.925Z,89
2019-04-05T06:37:37.544Z,89
2019-04-05T06:43:06.833Z,89
2019-04-05T06:48:33.612Z,89
2019-04-05T06:54:03.313Z,90
2019-04-05T06:59:28.701Z,89
2019-04-05T07:04:57.271Z,89
2019-04-05T07:10:26.064Z,90
2019-04-05T07:15:54.420Z,90
2019-04-05T07:21:23.162Z,88
2019-04-05T07:26:50.894Z,89
2019-04-05T07:32:18.550Z,87
2019-04-05T07:37:47.107Z,87
2019-04-05T07:43:14.823Z,87
2019-04-05T07:48:44.887Z,86
2019-04-05T07:54:11.255Z,86
2019-04-05T07:59:39.874Z,86
2019-04-05T08:05:07.700Z,85
2019-04-05T08:10:36.460Z,85
2019-04-05T08:16:04.173Z,86
2019-04-05T08:21:33.040Z,86
2019-04-05T08:27:01.708Z,87
2019-04-05T08:32:30.533Z,87
2019-04-05T08:37:59.240Z,86
2019-04-05T08:48:55.997Z,87
2019-04-05T08:54:32.193Z,87
2019-04-05T08:59:53.394Z,87
2019-04-05T09:05:21.606Z,87
2019-04-05T09:10:50.382Z,87
2019-04-05T09:16:19.646Z,87
2019-04-05T09:21:47.088Z,87
2019-04-05T09:27:15.948Z,87
2019-04-05T09:32:43.796Z,87
2019-04-05T09:38:12.732Z,86
2019-04-05T09:43:40.896Z,85
2019-04-05T09:49:09.816Z,85
2019-04-05T09:54:38.570Z,85
2019-04-05T10:00:06.752Z,85
2019-04-05T10:05:34.666Z,85
2019-04-05T10:11:03.486Z,85
2019-04-05T10:16:31.432Z,86
2019-04-05T10:22:00.470Z,86
2019-04-05T10:27:28.277Z,86
2019-04-05T10:32:56.565Z,87
2019-04-05T10:38:25.250Z,85
2019-04-05T10:43:53.203Z,85
2019-04-05T10:49:21.226Z,85
2019-04-05T10:54:50.433Z,84
2019-04-05T11:00:19.227Z,83
2019-04-05T11:05:49.344Z,83
2019-04-05T11:11:16.306Z,84
2019-04-05T11:16:57.372Z,82
2019-04-05T11:22:12.546Z,80
2019-04-05T11:27:40.582Z,80
2019-04-05T11:33:09.018Z,78
2019-04-05T11:38:36.779Z,77
2019-04-05T11:44:04.942Z,79
2019-04-05T11:49:32.973Z,78
2019-04-05T11:55:04.598Z,80
2019-04-05T12:00:30.970Z,80
2019-04-05T12:05:59.929Z,80
2019-04-05T12:11:27.916Z,81
2019-04-05T12:16:56.920Z,81
2019-04-05T12:22:24.980Z,79
2019-04-05T12:28:05.558Z,76
2019-04-05T12:33:22.277Z,76
2019-04-05T12:38:50.476Z,75
2019-04-05T12:44:18.609Z,74
2019-04-05T12:49:46.609Z,73
2019-04-05T12:55:16.956Z,73
2019-04-05T13:00:43.314Z,73
2019-04-05T13:06:15.329Z,75
2019-04-05T13:11:39.390Z,73
2019-04-05T13:17:08.436Z,71
2019-04-05T13:22:36.731Z,71
2019-04-05T13:28:12.982Z,72
2019-04-05T13:33:33.011Z,71
2019-04-05T13:39:01.321Z,70
2019-04-05T13:44:31.837Z,73
2019-04-05T13:49:58.614Z,73
2019-04-05T13:55:26.789Z,74
2019-04-05T14:00:55.074Z,73
2019-04-05T14:06:23.051Z,74
2019-04-05T14:11:52.404Z,74
2019-04-05T14:17:21.462Z,74
2019-04-05T14:22:51.259Z,74
2019-04-05T14:28:18.791Z,75
2019-04-05T14:33:46.997Z,74
2019-04-05T14:39:21.176Z,74
2019-04-05T14:44:46.320Z,75
2019-04-05T14:50:15.744Z,74
2019-04-05T14:55:41.636Z,74
2019-04-05T15:01:10.998Z,73
2019-04-05T15:06:38.980Z,73
2019-04-05T15:12:08.089Z,72
2019-04-05T15:17:47.576Z,73
2019-04-05T17:23:33.208Z,76
2019-04-05T17:29:00.501Z,76
2019-04-05T17:34:29.493Z,76
2019-04-05T17:39:58.596Z,75
2019-04-05T17:45:32.961Z,75
2019-04-05T17:50:54.465Z,75
2019-04-05T17:56:24.852Z,75
2019-04-05T18:01:50.473Z,75
2019-04-05T18:07:19.314Z,76
2019-04-05T18:12:48.386Z,75
2019-04-05T18:18:17.202Z,75
2019-04-05T18:23:46.151Z,76
2019-04-05T18:29:14.119Z,76
2019-04-05T18:34:42.054Z,76
2019-04-05T18:40:10.011Z,76
2019-04-05T18:45:37.901Z,76
2019-04-05T18:51:06.005Z,76
2019-04-05T18:56:33.776Z,76
2019-04-05T19:02:01.866Z,76
2019-04-05T19:07:30.818Z,77
2019-04-05T19:12:59.606Z,76
2019-04-05T19:18:27.575Z,77
2019-04-05T19:23:55.462Z,77
2019-04-05T19:29:24.284Z,77
2019-04-05T19:51:16.687Z,77
2019-04-05T19:56:45.519Z,77
2019-04-05T20:07:41.354Z,78
2019-04-05T20:13:10.129Z,78
2019-04-05T20:18:39.012Z,78
2019-04-05T20:24:13.920Z,78
2019-04-05T20:29:34.597Z,78
2019-04-05T20:40:31.319Z,78
2019-04-05T20:46:00.258Z,79
2019-04-05T20:51:29.343Z,79
2019-04-05T20:56:57.822Z,79
2019-04-05T21:02:25.617Z,79
2019-04-05T21:07:53.404Z,79
2019-04-05T21:13:21.257Z,79
2019-04-05T21:18:49.020Z,79
2019-04-05T21:24:17.831Z,80
2019-04-05T21:29:45.747Z,80
2019-04-05T21:35:14.177Z,81
2019-04-05T21:40:42.295Z,81
2019-04-05T21:46:11.201Z,81
2019-04-05T21:51:39.953Z,81
2019-04-05T21:57:08.820Z,81
2019-04-05T22:02:36.702Z,81
2019-04-05T22:08:05.412Z,81
2019-04-05T22:13:34.238Z,81
2019-04-05T22:19:02.137Z,81
2019-04-05T22:24:29.967Z,81
2019-04-05T22:29:58.773Z,82
2019-04-05T22:35:26.534Z,82
2019-04-05T22:40:54.376Z,82
2019-04-05T22:46:22.218Z,82
2019-04-05T22:51:50.008Z,82
2019-04-05T22:57:18.847Z,82
2019-04-05T23:02:46.650Z,82
2019-04-05T23:08:14.457Z,82
2019-04-05T23:13:42.339Z,82
2019-04-05T23:19:14.413Z,82
2019-04-05T23:24:39.860Z,82
2019-04-05T23:30:07.706Z,82
2019-04-05T23:35:35.799Z,82
2019-04-05T23:41:04.468Z,82
2019-04-05T23:46:33.012Z,83
2019-04-05T23:52:00.781Z,83
2019-04-05T23:57:28.567Z,83
